sensor_id;sensor_type;location;lat;lon;timestamp;P1;durP1;ratioP1;P2;durP2;ratioP2
24897;SDS011;12957;49.434;8.684;2023-06-10T00:02:13;5.60;;;4.07;;
24897;SDS011;12957;49.434;8.684;2023-06-10T00:04:38;4.88;;;3.88;;
24897;SDS011;12957;49.434;8.684;2023-06-10T00:07:04;5.60;;;3.72;;
24897;SDS011;12957;49.434;8.684;2023-06-10T00:09:36;4.93;;;3.67;;
24897;SDS011;12957;49.434;8.684;2023-06-10T00:12:05;10.13;;;5.85;;
24897;SDS011;12957;49.434;8.684;2023-06-10T00:14:32;6.35;;;4.30;;
24897;SDS011;12957;49.434;8.684;2023-06-10T00:16:58;4.40;;;3.97;;
24897;SDS011;12957;49.434;8.684;2023-06-10T00:19:24;4.97;;;3.78;;
24897;SDS011;12957;49.434;8.684;2023-06-10T00:21:55;6.20;;;3.92;;
24897;SDS011;12957;49.434;8.684;2023-06-10T00:24:20;4.38;;;3.97;;
24897;SDS011;12957;49.434;8.684;2023-06-10T00:26:46;4.10;;;3.80;;
24897;SDS011;12957;49.434;8.684;2023-06-10T00:29:11;4.50;;;4.10;;
24897;SDS011;12957;49.434;8.684;2023-06-10T00:31:38;3.95;;;3.65;;
24897;SDS011;12957;49.434;8.684;2023-06-10T00:34:04;5.07;;;3.80;;
24897;SDS011;12957;49.434;8.684;2023-06-10T00:36:29;4.07;;;3.65;;
24897;SDS011;12957;49.434;8.684;2023-06-10T00:38:55;4.13;;;3.72;;
24897;SDS011;12957;49.434;8.684;2023-06-10T00:41:21;5.85;;;3.75;;
24897;SDS011;12957;49.434;8.684;2023-06-10T00:43:47;4.25;;;3.83;;
24897;SDS011;12957;49.434;8.684;2023-06-10T00:46:12;7.32;;;3.80;;
24897;SDS011;12957;49.434;8.684;2023-06-10T00:48:41;6.45;;;3.88;;
24897;SDS011;12957;49.434;8.684;2023-06-10T00:51:07;4.60;;;3.92;;
24897;SDS011;12957;49.434;8.684;2023-06-10T00:53:37;4.15;;;3.50;;
24897;SDS011;12957;49.434;8.684;2023-06-10T00:56:04;6.38;;;3.80;;
24897;SDS011;12957;49.434;8.684;2023-06-10T00:58:30;4.80;;;4.18;;
24897;SDS011;12957;49.434;8.684;2023-06-10T01:00:56;6.90;;;3.65;;
24897;SDS011;12957;49.434;8.684;2023-06-10T01:03:22;4.13;;;3.78;;
24897;SDS011;12957;49.434;8.684;2023-06-10T01:05:50;6.10;;;3.90;;
24897;SDS011;12957;49.434;8.684;2023-06-10T01:11:02;4.25;;;3.63;;
24897;SDS011;12957;49.434;8.684;2023-06-10T01:13:30;7.68;;;3.80;;
24897;SDS011;12957;49.434;8.684;2023-06-10T01:15:58;4.20;;;3.80;;
24897;SDS011;12957;49.434;8.684;2023-06-10T01:18:29;5.97;;;3.85;;
24897;SDS011;12957;49.434;8.684;2023-06-10T01:20:55;4.72;;;3.65;;
24897;SDS011;12957;49.434;8.684;2023-06-10T01:23:21;4.75;;;3.70;;
24897;SDS011;12957;49.434;8.684;2023-06-10T01:25:55;4.35;;;3.60;;
24897;SDS011;12957;49.434;8.684;2023-06-10T01:28:32;5.38;;;3.80;;
24897;SDS011;12957;49.434;8.684;2023-06-10T01:33:49;5.70;;;3.65;;
24897;SDS011;12957;49.434;8.684;2023-06-10T01:36:17;4.45;;;4.05;;
24897;SDS011;12957;49.434;8.684;2023-06-10T01:38:44;5.10;;;3.70;;
24897;SDS011;12957;49.434;8.684;2023-06-10T01:41:10;4.38;;;3.60;;
24897;SDS011;12957;49.434;8.684;2023-06-10T01:43:37;4.22;;;3.88;;
24897;SDS011;12957;49.434;8.684;2023-06-10T01:46:03;6.05;;;4.32;;
24897;SDS011;12957;49.434;8.684;2023-06-10T01:48:29;7.32;;;4.03;;
24897;SDS011;12957;49.434;8.684;2023-06-10T01:50:55;4.70;;;4.32;;
24897;SDS011;12957;49.434;8.684;2023-06-10T01:53:21;5.30;;;4.65;;
24897;SDS011;12957;49.434;8.684;2023-06-10T01:55:47;4.25;;;3.88;;
24897;SDS011;12957;49.434;8.684;2023-06-10T01:58:13;5.55;;;4.57;;
24897;SDS011;12957;49.434;8.684;2023-06-10T02:00:38;5.53;;;4.28;;
24897;SDS011;12957;49.434;8.684;2023-06-10T02:03:04;5.40;;;4.72;;
24897;SDS011;12957;49.434;8.684;2023-06-10T02:05:30;5.43;;;4.90;;
24897;SDS011;12957;49.434;8.684;2023-06-10T02:07:55;4.72;;;4.32;;
24897;SDS011;12957;49.434;8.684;2023-06-10T02:10:21;4.90;;;4.50;;
24897;SDS011;12957;49.434;8.684;2023-06-10T02:12:46;5.22;;;4.72;;
24897;SDS011;12957;49.434;8.684;2023-06-10T02:15:12;5.03;;;4.63;;
24897;SDS011;12957;49.434;8.684;2023-06-10T02:17:37;5.30;;;4.80;;
24897;SDS011;12957;49.434;8.684;2023-06-10T02:20:03;6.80;;;5.80;;
24897;SDS011;12957;49.434;8.684;2023-06-10T02:22:32;5.75;;;5.20;;
24897;SDS011;12957;49.434;8.684;2023-06-10T02:24:57;5.82;;;5.32;;
24897;SDS011;12957;49.434;8.684;2023-06-10T02:27:23;6.10;;;5.50;;
24897;SDS011;12957;49.434;8.684;2023-06-10T02:29:49;5.78;;;5.30;;
24897;SDS011;12957;49.434;8.684;2023-06-10T02:32:15;6.53;;;5.43;;
24897;SDS011;12957;49.434;8.684;2023-06-10T02:34:40;7.55;;;5.30;;
24897;SDS011;12957;49.434;8.684;2023-06-10T02:37:07;7.30;;;5.20;;
24897;SDS011;12957;49.434;8.684;2023-06-10T02:39:33;6.25;;;5.65;;
24897;SDS011;12957;49.434;8.684;2023-06-10T02:41:59;6.78;;;6.00;;
24897;SDS011;12957;49.434;8.684;2023-06-10T02:44:25;7.45;;;5.85;;
24897;SDS011;12957;49.434;8.684;2023-06-10T02:46:50;5.68;;;5.13;;
24897;SDS011;12957;49.434;8.684;2023-06-10T02:49:16;5.28;;;4.80;;
24897;SDS011;12957;49.434;8.684;2023-06-10T02:51:41;5.10;;;4.60;;
24897;SDS011;12957;49.434;8.684;2023-06-10T02:54:07;5.70;;;5.20;;
24897;SDS011;12957;49.434;8.684;2023-06-10T02:56:32;5.10;;;4.70;;
24897;SDS011;12957;49.434;8.684;2023-06-10T02:58:58;6.53;;;5.22;;
24897;SDS011;12957;49.434;8.684;2023-06-10T03:01:24;5.85;;;5.10;;
24897;SDS011;12957;49.434;8.684;2023-06-10T03:03:49;5.38;;;4.88;;
24897;SDS011;12957;49.434;8.684;2023-06-10T03:06:15;5.28;;;4.78;;
24897;SDS011;12957;49.434;8.684;2023-06-10T03:08:41;5.57;;;4.50;;
24897;SDS011;12957;49.434;8.684;2023-06-10T03:11:06;5.45;;;4.95;;
24897;SDS011;12957;49.434;8.684;2023-06-10T03:13:32;9.20;;;4.90;;
24897;SDS011;12957;49.434;8.684;2023-06-10T03:15:57;5.40;;;4.90;;
24897;SDS011;12957;49.434;8.684;2023-06-10T03:18:26;5.50;;;5.00;;
24897;SDS011;12957;49.434;8.684;2023-06-10T03:20:52;6.22;;;5.47;;
24897;SDS011;12957;49.434;8.684;2023-06-10T03:23:18;5.50;;;5.00;;
24897;SDS011;12957;49.434;8.684;2023-06-10T03:25:44;6.38;;;5.78;;
24897;SDS011;12957;49.434;8.684;2023-06-10T03:28:10;6.32;;;5.72;;
24897;SDS011;12957;49.434;8.684;2023-06-10T03:30:36;10.05;;;6.22;;
24897;SDS011;12957;49.434;8.684;2023-06-10T03:33:02;6.55;;;5.90;;
24897;SDS011;12957;49.434;8.684;2023-06-10T03:35:27;6.72;;;6.03;;
24897;SDS011;12957;49.434;8.684;2023-06-10T03:37:53;6.07;;;5.45;;
24897;SDS011;12957;49.434;8.684;2023-06-10T03:40:18;6.43;;;5.82;;
24897;SDS011;12957;49.434;8.684;2023-06-10T03:42:44;10.00;;;6.47;;
24897;SDS011;12957;49.434;8.684;2023-06-10T03:45:09;7.90;;;7.10;;
24897;SDS011;12957;49.434;8.684;2023-06-10T03:47:36;9.73;;;6.95;;
24897;SDS011;12957;49.434;8.684;2023-06-10T03:50:05;8.80;;;7.45;;
24897;SDS011;12957;49.434;8.684;2023-06-10T03:52:31;6.32;;;5.70;;
24897;SDS011;12957;49.434;8.684;2023-06-10T03:54:57;9.52;;;6.05;;
24897;SDS011;12957;49.434;8.684;2023-06-10T03:57:22;5.97;;;5.38;;
24897;SDS011;12957;49.434;8.684;2023-06-10T03:59:48;5.78;;;5.28;;
24897;SDS011;12957;49.434;8.684;2023-06-10T04:02:13;5.60;;;5.05;;
24897;SDS011;12957;49.434;8.684;2023-06-10T04:04:39;5.85;;;5.32;;
24897;SDS011;12957;49.434;8.684;2023-06-10T04:07:06;6.70;;;5.40;;
24897;SDS011;12957;49.434;8.684;2023-06-10T04:09:31;7.40;;;5.38;;
24897;SDS011;12957;49.434;8.684;2023-06-10T04:11:57;6.15;;;5.43;;
24897;SDS011;12957;49.434;8.684;2023-06-10T04:14:22;7.85;;;4.60;;
24897;SDS011;12957;49.434;8.684;2023-06-10T04:16:49;6.57;;;5.25;;
24897;SDS011;12957;49.434;8.684;2023-06-10T04:19:15;5.38;;;4.88;;
24897;SDS011;12957;49.434;8.684;2023-06-10T04:21:41;9.70;;;7.35;;
24897;SDS011;12957;49.434;8.684;2023-06-10T04:24:07;5.68;;;5.10;;
24897;SDS011;12957;49.434;8.684;2023-06-10T04:26:34;5.55;;;4.93;;
24897;SDS011;12957;49.434;8.684;2023-06-10T04:29:00;6.72;;;4.82;;
24897;SDS011;12957;49.434;8.684;2023-06-10T04:31:26;5.50;;;4.95;;
24897;SDS011;12957;49.434;8.684;2023-06-10T04:33:51;5.38;;;4.88;;
24897;SDS011;12957;49.434;8.684;2023-06-10T04:36:17;5.40;;;4.90;;
24897;SDS011;12957;49.434;8.684;2023-06-10T04:38:42;6.28;;;4.55;;
24897;SDS011;12957;49.434;8.684;2023-06-10T04:41:08;4.53;;;4.18;;
24897;SDS011;12957;49.434;8.684;2023-06-10T04:43:33;5.30;;;4.80;;
24897;SDS011;12957;49.434;8.684;2023-06-10T04:45:59;4.82;;;4.43;;
24897;SDS011;12957;49.434;8.684;2023-06-10T04:48:24;5.38;;;4.43;;
24897;SDS011;12957;49.434;8.684;2023-06-10T04:50:50;8.07;;;4.72;;
24897;SDS011;12957;49.434;8.684;2023-06-10T04:53:16;5.25;;;4.72;;
24897;SDS011;12957;49.434;8.684;2023-06-10T04:55:42;4.95;;;4.47;;
24897;SDS011;12957;49.434;8.684;2023-06-10T04:58:08;6.18;;;4.38;;
24897;SDS011;12957;49.434;8.684;2023-06-10T05:00:34;4.90;;;4.50;;
24897;SDS011;12957;49.434;8.684;2023-06-10T05:03:00;4.82;;;4.07;;
24897;SDS011;12957;49.434;8.684;2023-06-10T05:05:25;4.45;;;4.03;;
24897;SDS011;12957;49.434;8.684;2023-06-10T05:07:51;5.80;;;4.05;;
24897;SDS011;12957;49.434;8.684;2023-06-10T05:10:16;4.43;;;4.03;;
24897;SDS011;12957;49.434;8.684;2023-06-10T05:12:42;4.28;;;3.88;;
24897;SDS011;12957;49.434;8.684;2023-06-10T05:15:07;4.57;;;3.45;;
24897;SDS011;12957;49.434;8.684;2023-06-10T05:17:33;3.75;;;3.53;;
24897;SDS011;12957;49.434;8.684;2023-06-10T05:20:00;4.35;;;3.83;;
24897;SDS011;12957;49.434;8.684;2023-06-10T05:22:26;3.83;;;3.38;;
24897;SDS011;12957;49.434;8.684;2023-06-10T05:24:52;4.57;;;3.55;;
24897;SDS011;12957;49.434;8.684;2023-06-10T05:27:18;3.88;;;3.58;;
24897;SDS011;12957;49.434;8.684;2023-06-10T05:29:44;4.80;;;3.72;;
24897;SDS011;12957;49.434;8.684;2023-06-10T05:32:10;6.38;;;3.78;;
24897;SDS011;12957;49.434;8.684;2023-06-10T05:34:36;3.85;;;3.55;;
24897;SDS011;12957;49.434;8.684;2023-06-10T05:37:02;3.72;;;3.42;;
24897;SDS011;12957;49.434;8.684;2023-06-10T05:39:28;3.55;;;3.35;;
24897;SDS011;12957;49.434;8.684;2023-06-10T05:41:53;3.65;;;3.35;;
24897;SDS011;12957;49.434;8.684;2023-06-10T05:44:19;4.32;;;3.40;;
24897;SDS011;12957;49.434;8.684;2023-06-10T05:46:44;3.20;;;3.00;;
24897;SDS011;12957;49.434;8.684;2023-06-10T05:49:10;3.70;;;3.40;;
24897;SDS011;12957;49.434;8.684;2023-06-10T05:51:35;3.80;;;3.50;;
24897;SDS011;12957;49.434;8.684;2023-06-10T05:54:02;3.20;;;3.00;;
24897;SDS011;12957;49.434;8.684;2023-06-10T05:56:28;3.25;;;3.05;;
24897;SDS011;12957;49.434;8.684;2023-06-10T05:58:54;5.68;;;3.47;;
24897;SDS011;12957;49.434;8.684;2023-06-10T06:01:19;4.65;;;3.88;;
24897;SDS011;12957;49.434;8.684;2023-06-10T06:03:45;5.15;;;4.15;;
24897;SDS011;12957;49.434;8.684;2023-06-10T06:06:10;3.95;;;3.67;;
24897;SDS011;12957;49.434;8.684;2023-06-10T06:08:36;3.70;;;3.47;;
24897;SDS011;12957;49.434;8.684;2023-06-10T06:11:02;3.97;;;3.67;;
24897;SDS011;12957;49.434;8.684;2023-06-10T06:13:27;4.47;;;4.07;;
24897;SDS011;12957;49.434;8.684;2023-06-10T06:15:53;4.00;;;3.70;;
24897;SDS011;12957;49.434;8.684;2023-06-10T06:18:18;5.13;;;4.10;;
24897;SDS011;12957;49.434;8.684;2023-06-10T06:20:44;5.03;;;3.90;;
24897;SDS011;12957;49.434;8.684;2023-06-10T06:23:09;9.82;;;5.20;;
24897;SDS011;12957;49.434;8.684;2023-06-10T06:25:36;8.48;;;5.97;;
24897;SDS011;12957;49.434;8.684;2023-06-10T06:28:04;4.63;;;4.20;;
24897;SDS011;12957;49.434;8.684;2023-06-10T06:30:34;4.40;;;4.10;;
24897;SDS011;12957;49.434;8.684;2023-06-10T06:33:00;4.40;;;3.42;;
24897;SDS011;12957;49.434;8.684;2023-06-10T06:35:25;4.13;;;3.90;;
24897;SDS011;12957;49.434;8.684;2023-06-10T06:37:51;5.43;;;4.43;;
24897;SDS011;12957;49.434;8.684;2023-06-10T06:40:19;5.18;;;3.63;;
24897;SDS011;12957;49.434;8.684;2023-06-10T06:42:45;4.32;;;4.03;;
24897;SDS011;12957;49.434;8.684;2023-06-10T06:45:10;5.47;;;4.32;;
24897;SDS011;12957;49.434;8.684;2023-06-10T06:47:36;5.68;;;4.07;;
24897;SDS011;12957;49.434;8.684;2023-06-10T06:50:08;3.80;;;3.50;;
24897;SDS011;12957;49.434;8.684;2023-06-10T06:52:37;7.63;;;4.10;;
24897;SDS011;12957;49.434;8.684;2023-06-10T06:55:02;4.53;;;3.60;;
24897;SDS011;12957;49.434;8.684;2023-06-10T06:57:28;5.05;;;3.63;;
24897;SDS011;12957;49.434;8.684;2023-06-10T06:59:54;5.15;;;3.97;;
24897;SDS011;12957;49.434;8.684;2023-06-10T07:02:19;7.57;;;4.30;;
24897;SDS011;12957;49.434;8.684;2023-06-10T07:04:45;4.05;;;3.65;;
24897;SDS011;12957;49.434;8.684;2023-06-10T07:07:13;4.47;;;4.05;;
24897;SDS011;12957;49.434;8.684;2023-06-10T07:09:38;3.88;;;3.67;;
24897;SDS011;12957;49.434;8.684;2023-06-10T07:12:04;4.22;;;3.80;;
24897;SDS011;12957;49.434;8.684;2023-06-10T07:14:30;4.00;;;3.70;;
24897;SDS011;12957;49.434;8.684;2023-06-10T07:16:56;11.35;;;3.70;;
24897;SDS011;12957;49.434;8.684;2023-06-10T07:19:21;8.68;;;3.88;;
24897;SDS011;12957;49.434;8.684;2023-06-10T07:21:47;4.40;;;3.67;;
24897;SDS011;12957;49.434;8.684;2023-06-10T07:24:13;3.72;;;3.53;;
24897;SDS011;12957;49.434;8.684;2023-06-10T07:26:38;4.05;;;3.72;;
24897;SDS011;12957;49.434;8.684;2023-06-10T07:29:04;3.63;;;3.33;;
24897;SDS011;12957;49.434;8.684;2023-06-10T07:31:29;3.92;;;3.47;;
24897;SDS011;12957;49.434;8.684;2023-06-10T07:33:55;5.82;;;3.60;;
24897;SDS011;12957;49.434;8.684;2023-06-10T07:36:21;6.43;;;3.95;;
24897;SDS011;12957;49.434;8.684;2023-06-10T07:38:46;6.90;;;3.45;;
24897;SDS011;12957;49.434;8.684;2023-06-10T07:41:12;3.97;;;3.58;;
24897;SDS011;12957;49.434;8.684;2023-06-10T07:43:37;3.50;;;3.30;;
24897;SDS011;12957;49.434;8.684;2023-06-10T07:46:03;3.70;;;3.47;;
24897;SDS011;12957;49.434;8.684;2023-06-10T07:48:30;3.63;;;3.40;;
24897;SDS011;12957;49.434;8.684;2023-06-10T07:50:56;3.70;;;3.50;;
24897;SDS011;12957;49.434;8.684;2023-06-10T07:53:21;7.38;;;3.70;;
24897;SDS011;12957;49.434;8.684;2023-06-10T07:55:47;3.97;;;3.67;;
24897;SDS011;12957;49.434;8.684;2023-06-10T07:58:12;3.60;;;3.20;;
24897;SDS011;12957;49.434;8.684;2023-06-10T08:00:38;5.00;;;3.42;;
24897;SDS011;12957;49.434;8.684;2023-06-10T08:03:04;3.50;;;3.30;;
24897;SDS011;12957;49.434;8.684;2023-06-10T08:05:29;3.58;;;3.28;;
24897;SDS011;12957;49.434;8.684;2023-06-10T08:07:55;9.15;;;4.50;;
24897;SDS011;12957;49.434;8.684;2023-06-10T08:10:21;3.65;;;3.35;;
24897;SDS011;12957;49.434;8.684;2023-06-10T08:12:47;3.60;;;3.40;;
24897;SDS011;12957;49.434;8.684;2023-06-10T08:15:12;3.95;;;3.42;;
24897;SDS011;12957;49.434;8.684;2023-06-10T08:17:38;6.18;;;3.30;;
24897;SDS011;12957;49.434;8.684;2023-06-10T08:20:04;5.03;;;3.55;;
24897;SDS011;12957;49.434;8.684;2023-06-10T08:22:31;3.67;;;3.30;;
24897;SDS011;12957;49.434;8.684;2023-06-10T08:24:56;7.25;;;3.53;;
24897;SDS011;12957;49.434;8.684;2023-06-10T08:27:22;4.30;;;3.47;;
24897;SDS011;12957;49.434;8.684;2023-06-10T08:29:47;3.95;;;3.65;;
24897;SDS011;12957;49.434;8.684;2023-06-10T08:32:13;3.85;;;3.55;;
24897;SDS011;12957;49.434;8.684;2023-06-10T08:34:38;5.20;;;3.80;;
24897;SDS011;12957;49.434;8.684;2023-06-10T08:37:04;6.13;;;4.13;;
24897;SDS011;12957;49.434;8.684;2023-06-10T08:39:30;4.20;;;3.72;;
24897;SDS011;12957;49.434;8.684;2023-06-10T08:44:52;7.15;;;4.43;;
24897;SDS011;12957;49.434;8.684;2023-06-10T08:47:20;6.15;;;3.30;;
24897;SDS011;12957;49.434;8.684;2023-06-10T08:49:48;6.15;;;3.88;;
24897;SDS011;12957;49.434;8.684;2023-06-10T08:52:14;4.00;;;3.70;;
24897;SDS011;12957;49.434;8.684;2023-06-10T08:54:42;3.75;;;3.33;;
24897;SDS011;12957;49.434;8.684;2023-06-10T08:57:08;4.20;;;3.80;;
24897;SDS011;12957;49.434;8.684;2023-06-10T08:59:34;3.67;;;3.33;;
24897;SDS011;12957;49.434;8.684;2023-06-10T09:02:01;4.20;;;3.80;;
24897;SDS011;12957;49.434;8.684;2023-06-10T09:04:27;4.05;;;3.53;;
24897;SDS011;12957;49.434;8.684;2023-06-10T09:06:53;8.20;;;4.78;;
24897;SDS011;12957;49.434;8.684;2023-06-10T09:09:18;13.82;;;5.75;;
24897;SDS011;12957;49.434;8.684;2023-06-10T09:11:45;3.95;;;3.70;;
24897;SDS011;12957;49.434;8.684;2023-06-10T09:14:11;7.05;;;4.18;;
24897;SDS011;12957;49.434;8.684;2023-06-10T09:16:39;5.70;;;3.40;;
24897;SDS011;12957;49.434;8.684;2023-06-10T09:19:06;3.90;;;3.50;;
24897;SDS011;12957;49.434;8.684;2023-06-10T09:21:33;8.48;;;3.63;;
24897;SDS011;12957;49.434;8.684;2023-06-10T09:23:59;4.78;;;3.80;;
24897;SDS011;12957;49.434;8.684;2023-06-10T09:26:27;4.40;;;3.83;;
24897;SDS011;12957;49.434;8.684;2023-06-10T09:28:57;3.88;;;3.58;;
24897;SDS011;12957;49.434;8.684;2023-06-10T09:31:27;4.57;;;3.67;;
24897;SDS011;12957;49.434;8.684;2023-06-10T09:33:53;5.85;;;3.55;;
24897;SDS011;12957;49.434;8.684;2023-06-10T09:36:24;6.00;;;3.40;;
24897;SDS011;12957;49.434;8.684;2023-06-10T09:38:50;3.90;;;3.60;;
24897;SDS011;12957;49.434;8.684;2023-06-10T09:41:16;5.45;;;3.88;;
24897;SDS011;12957;49.434;8.684;2023-06-10T09:43:43;6.40;;;3.70;;
24897;SDS011;12957;49.434;8.684;2023-06-10T09:46:15;6.50;;;3.60;;
24897;SDS011;12957;49.434;8.684;2023-06-10T09:48:42;3.35;;;3.15;;
24897;SDS011;12957;49.434;8.684;2023-06-10T09:51:09;5.30;;;3.40;;
24897;SDS011;12957;49.434;8.684;2023-06-10T09:53:35;4.38;;;3.97;;
24897;SDS011;12957;49.434;8.684;2023-06-10T09:56:00;3.92;;;3.50;;
24897;SDS011;12957;49.434;8.684;2023-06-10T09:58:39;4.30;;;3.90;;
24897;SDS011;12957;49.434;8.684;2023-06-10T10:01:10;3.70;;;3.40;;
24897;SDS011;12957;49.434;8.684;2023-06-10T10:03:45;3.40;;;3.20;;
24897;SDS011;12957;49.434;8.684;2023-06-10T10:06:13;5.13;;;3.80;;
24897;SDS011;12957;49.434;8.684;2023-06-10T10:08:39;4.93;;;3.65;;
24897;SDS011;12957;49.434;8.684;2023-06-10T10:11:04;3.90;;;3.60;;
24897;SDS011;12957;49.434;8.684;2023-06-10T10:13:31;3.97;;;3.30;;
24897;SDS011;12957;49.434;8.684;2023-06-10T10:15:59;3.70;;;3.47;;
24897;SDS011;12957;49.434;8.684;2023-06-10T10:18:28;3.83;;;3.45;;
24897;SDS011;12957;49.434;8.684;2023-06-10T10:20:55;7.05;;;3.85;;
24897;SDS011;12957;49.434;8.684;2023-06-10T10:23:27;5.20;;;3.22;;
24897;SDS011;12957;49.434;8.684;2023-06-10T10:25:57;3.95;;;3.65;;
24897;SDS011;12957;49.434;8.684;2023-06-10T10:28:26;6.28;;;3.72;;
24897;SDS011;12957;49.434;8.684;2023-06-10T10:31:02;7.68;;;3.63;;
24897;SDS011;12957;49.434;8.684;2023-06-10T10:33:40;4.20;;;3.78;;
24897;SDS011;12957;49.434;8.684;2023-06-10T10:36:10;3.88;;;3.47;;
24897;SDS011;12957;49.434;8.684;2023-06-10T10:38:37;5.00;;;3.42;;
24897;SDS011;12957;49.434;8.684;2023-06-10T10:41:03;8.07;;;3.83;;
24897;SDS011;12957;49.434;8.684;2023-06-10T10:43:29;4.03;;;3.58;;
24897;SDS011;12957;49.434;8.684;2023-06-10T10:46:01;3.90;;;3.60;;
24897;SDS011;12957;49.434;8.684;2023-06-10T10:48:34;3.90;;;3.60;;
24897;SDS011;12957;49.434;8.684;2023-06-10T10:51:02;4.95;;;3.53;;
24897;SDS011;12957;49.434;8.684;2023-06-10T10:53:28;5.43;;;3.80;;
24897;SDS011;12957;49.434;8.684;2023-06-10T10:55:59;9.43;;;3.50;;
24897;SDS011;12957;49.434;8.684;2023-06-10T10:58:29;6.45;;;3.53;;
24897;SDS011;12957;49.434;8.684;2023-06-10T11:00:55;3.85;;;3.53;;
24897;SDS011;12957;49.434;8.684;2023-06-10T11:03:20;5.95;;;3.90;;
24897;SDS011;12957;49.434;8.684;2023-06-10T11:05:47;4.72;;;3.80;;
24897;SDS011;12957;49.434;8.684;2023-06-10T11:08:14;5.38;;;3.95;;
24897;SDS011;12957;49.434;8.684;2023-06-10T11:11:00;4.20;;;3.80;;
24897;SDS011;12957;49.434;8.684;2023-06-10T11:13:26;3.80;;;3.50;;
24897;SDS011;12957;49.434;8.684;2023-06-10T11:15:53;3.97;;;3.67;;
24897;SDS011;12957;49.434;8.684;2023-06-10T11:18:23;4.38;;;4.05;;
24897;SDS011;12957;49.434;8.684;2023-06-10T11:28:35;3.60;;;3.40;;
24897;SDS011;12957;49.434;8.684;2023-06-10T11:31:00;7.13;;;3.58;;
24897;SDS011;12957;49.434;8.684;2023-06-10T11:33:26;5.68;;;3.65;;
24897;SDS011;12957;49.434;8.684;2023-06-10T11:35:51;3.40;;;3.10;;
24897;SDS011;12957;49.434;8.684;2023-06-10T11:38:17;3.70;;;3.40;;
24897;SDS011;12957;49.434;8.684;2023-06-10T11:40:49;7.05;;;3.80;;
24897;SDS011;12957;49.434;8.684;2023-06-10T11:43:18;3.55;;;3.25;;
24897;SDS011;12957;49.434;8.684;2023-06-10T11:45:44;5.57;;;3.63;;
24897;SDS011;12957;49.434;8.684;2023-06-10T11:48:10;4.53;;;3.10;;
24897;SDS011;12957;49.434;8.684;2023-06-10T11:50:36;3.60;;;3.40;;
24897;SDS011;12957;49.434;8.684;2023-06-10T11:53:02;4.28;;;3.53;;
24897;SDS011;12957;49.434;8.684;2023-06-10T11:55:46;8.05;;;3.80;;
24897;SDS011;12957;49.434;8.684;2023-06-10T11:58:20;3.75;;;3.45;;
24897;SDS011;12957;49.434;8.684;2023-06-10T12:00:50;3.40;;;3.20;;
24897;SDS011;12957;49.434;8.684;2023-06-10T12:03:18;4.43;;;3.50;;
24897;SDS011;12957;49.434;8.684;2023-06-10T12:06:00;3.97;;;3.67;;
24897;SDS011;12957;49.434;8.684;2023-06-10T12:08:27;4.75;;;3.35;;
24897;SDS011;12957;49.434;8.684;2023-06-10T12:10:53;4.32;;;3.08;;
24897;SDS011;12957;49.434;8.684;2023-06-10T12:13:19;3.90;;;3.40;;
24897;SDS011;12957;49.434;8.684;2023-06-10T12:15:45;7.47;;;3.38;;
24897;SDS011;12957;49.434;8.684;2023-06-10T12:18:17;4.43;;;3.72;;
24897;SDS011;12957;49.434;8.684;2023-06-10T12:20:44;3.97;;;3.35;;
24897;SDS011;12957;49.434;8.684;2023-06-10T12:23:09;6.50;;;3.30;;
24897;SDS011;12957;49.434;8.684;2023-06-10T12:25:35;3.30;;;3.00;;
24897;SDS011;12957;49.434;8.684;2023-06-10T12:28:04;3.35;;;3.05;;
24897;SDS011;12957;49.434;8.684;2023-06-10T12:30:31;4.05;;;3.10;;
24897;SDS011;12957;49.434;8.684;2023-06-10T12:32:56;3.33;;;3.03;;
24897;SDS011;12957;49.434;8.684;2023-06-10T12:35:23;3.10;;;2.90;;
24897;SDS011;12957;49.434;8.684;2023-06-10T12:37:56;4.03;;;3.20;;
24897;SDS011;12957;49.434;8.684;2023-06-10T12:40:26;3.50;;;3.20;;
24897;SDS011;12957;49.434;8.684;2023-06-10T12:42:56;3.85;;;3.30;;
24897;SDS011;12957;49.434;8.684;2023-06-10T12:48:04;6.45;;;3.40;;
24897;SDS011;12957;49.434;8.684;2023-06-10T12:50:31;3.92;;;3.38;;
24897;SDS011;12957;49.434;8.684;2023-06-10T12:52:56;3.85;;;3.40;;
24897;SDS011;12957;49.434;8.684;2023-06-10T12:55:22;3.40;;;3.10;;
24897;SDS011;12957;49.434;8.684;2023-06-10T12:57:48;4.85;;;3.70;;
24897;SDS011;12957;49.434;8.684;2023-06-10T13:00:14;4.25;;;3.67;;
24897;SDS011;12957;49.434;8.684;2023-06-10T13:02:40;3.40;;;3.13;;
24897;SDS011;12957;49.434;8.684;2023-06-10T13:05:06;5.85;;;3.40;;
24897;SDS011;12957;49.434;8.684;2023-06-10T13:07:32;3.85;;;3.47;;
24897;SDS011;12957;49.434;8.684;2023-06-10T13:09:58;4.32;;;4.03;;
24897;SDS011;12957;49.434;8.684;2023-06-10T13:12:25;6.68;;;3.65;;
24897;SDS011;12957;49.434;8.684;2023-06-10T13:14:51;6.95;;;3.63;;
24897;SDS011;12957;49.434;8.684;2023-06-10T13:17:18;4.10;;;3.42;;
24897;SDS011;12957;49.434;8.684;2023-06-10T13:19:44;7.03;;;3.70;;
24897;SDS011;12957;49.434;8.684;2023-06-10T13:22:09;4.78;;;3.72;;
24897;SDS011;12957;49.434;8.684;2023-06-10T13:24:35;6.45;;;3.80;;
24897;SDS011;12957;49.434;8.684;2023-06-10T13:29:08;3.47;;;3.17;;
24897;SDS011;12957;49.434;8.684;2023-06-10T13:31:38;3.35;;;3.13;;
24897;SDS011;12957;49.434;8.684;2023-06-10T13:34:04;3.08;;;2.88;;
24897;SDS011;12957;49.434;8.684;2023-06-10T13:36:30;4.70;;;3.10;;
24897;SDS011;12957;49.434;8.684;2023-06-10T13:38:55;3.17;;;2.97;;
24897;SDS011;12957;49.434;8.684;2023-06-10T13:41:21;3.08;;;2.83;;
24897;SDS011;12957;49.434;8.684;2023-06-10T13:43:46;4.75;;;3.15;;
24897;SDS011;12957;49.434;8.684;2023-06-10T13:46:11;2.90;;;2.70;;
24897;SDS011;12957;49.434;8.684;2023-06-10T13:48:37;3.13;;;2.92;;
24897;SDS011;12957;49.434;8.684;2023-06-10T13:51:03;3.08;;;2.88;;
24897;SDS011;12957;49.434;8.684;2023-06-10T13:53:28;3.13;;;2.92;;
24897;SDS011;12957;49.434;8.684;2023-06-10T13:55:54;3.28;;;2.70;;
24897;SDS011;12957;49.434;8.684;2023-06-10T13:58:19;3.50;;;3.20;;
24897;SDS011;12957;49.434;8.684;2023-06-10T14:00:45;3.20;;;3.00;;
24897;SDS011;12957;49.434;8.684;2023-06-10T14:03:11;3.40;;;3.20;;
24897;SDS011;12957;49.434;8.684;2023-06-10T14:05:37;3.30;;;2.97;;
24897;SDS011;12957;49.434;8.684;2023-06-10T14:08:02;3.50;;;3.13;;
24897;SDS011;12957;49.434;8.684;2023-06-10T14:10:28;4.63;;;3.50;;
24897;SDS011;12957;49.434;8.684;2023-06-10T14:12:54;6.35;;;2.80;;
24897;SDS011;12957;49.434;8.684;2023-06-10T14:15:19;3.28;;;3.08;;
24897;SDS011;12957;49.434;8.684;2023-06-10T14:17:45;3.47;;;3.17;;
24897;SDS011;12957;49.434;8.684;2023-06-10T14:20:10;3.33;;;3.13;;
24897;SDS011;12957;49.434;8.684;2023-06-10T14:22:36;3.00;;;2.90;;
24897;SDS011;12957;49.434;8.684;2023-06-10T14:25:02;3.15;;;2.95;;
24897;SDS011;12957;49.434;8.684;2023-06-10T14:27:27;3.10;;;2.90;;
24897;SDS011;12957;49.434;8.684;2023-06-10T14:29:53;3.30;;;3.10;;
24897;SDS011;12957;49.434;8.684;2023-06-10T14:32:18;2.85;;;2.75;;
24897;SDS011;12957;49.434;8.684;2023-06-10T14:34:44;3.80;;;3.50;;
24897;SDS011;12957;49.434;8.684;2023-06-10T14:37:12;3.28;;;3.03;;
24897;SDS011;12957;49.434;8.684;2023-06-10T14:39:37;3.83;;;3.45;;
24897;SDS011;12957;49.434;8.684;2023-06-10T14:42:03;4.05;;;3.60;;
24897;SDS011;12957;49.434;8.684;2023-06-10T14:44:29;7.13;;;3.45;;
24897;SDS011;12957;49.434;8.684;2023-06-10T14:46:56;3.55;;;3.25;;
24897;SDS011;12957;49.434;8.684;2023-06-10T14:49:21;3.95;;;3.33;;
24897;SDS011;12957;49.434;8.684;2023-06-10T14:51:47;3.53;;;3.10;;
24897;SDS011;12957;49.434;8.684;2023-06-10T14:54:14;6.25;;;3.00;;
24897;SDS011;12957;49.434;8.684;2023-06-10T14:56:40;5.05;;;3.17;;
24897;SDS011;12957;49.434;8.684;2023-06-10T14:59:06;4.05;;;3.15;;
24897;SDS011;12957;49.434;8.684;2023-06-10T15:01:31;3.58;;;3.38;;
24897;SDS011;12957;49.434;8.684;2023-06-10T15:03:56;3.25;;;2.92;;
24897;SDS011;12957;49.434;8.684;2023-06-10T15:06:22;5.25;;;3.40;;